sensor_id;sensor_type;location;lat;lon;timestamp;P1;durP1;ratioP1;P2;durP2;ratioP2
71475;SDS011;59286;59.274;17.974;2022-12-18T00:02:02;16.63;;;11.68;;
71475;SDS011;59286;59.274;17.974;2022-12-18T00:04:28;20.50;;;12.05;;
71475;SDS011;59286;59.274;17.974;2022-12-18T00:06:53;19.75;;;11.40;;
71475;SDS011;59286;59.274;17.974;2022-12-18T00:09:19;15.45;;;11.15;;
71475;SDS011;59286;59.274;17.974;2022-12-18T00:11:45;20.75;;;12.32;;
71475;SDS011;59286;59.274;17.974;2022-12-18T00:14:11;20.13;;;12.23;;
71475;SDS011;59286;59.274;17.974;2022-12-18T00:16:38;20.98;;;12.23;;
71475;SDS011;59286;59.274;17.974;2022-12-18T00:19:03;19.63;;;12.20;;
71475;SDS011;59286;59.274;17.974;2022-12-18T00:21:30;18.88;;;12.35;;
71475;SDS011;59286;59.274;17.974;2022-12-18T00:23:59;21.65;;;12.32;;
71475;SDS011;59286;59.274;17.974;2022-12-18T00:26:26;15.63;;;12.25;;
71475;SDS011;59286;59.274;17.974;2022-12-18T00:28:53;20.45;;;11.93;;
71475;SDS011;59286;59.274;17.974;2022-12-18T00:31:21;23.52;;;12.38;;
71475;SDS011;59286;59.274;17.974;2022-12-18T00:33:47;20.25;;;13.02;;
71475;SDS011;59286;59.274;17.974;2022-12-18T00:36:14;17.00;;;12.80;;
71475;SDS011;59286;59.274;17.974;2022-12-18T00:38:44;23.50;;;13.85;;
71475;SDS011;59286;59.274;17.974;2022-12-18T00:41:12;25.20;;;12.23;;
71475;SDS011;59286;59.274;17.974;2022-12-18T00:43:39;20.13;;;11.52;;
71475;SDS011;59286;59.274;17.974;2022-12-18T00:46:05;19.95;;;11.60;;
71475;SDS011;59286;59.274;17.974;2022-12-18T00:48:30;23.08;;;12.60;;
71475;SDS011;59286;59.274;17.974;2022-12-18T00:50:56;22.08;;;14.00;;
71475;SDS011;59286;59.274;17.974;2022-12-18T00:53:21;20.38;;;13.15;;
71475;SDS011;59286;59.274;17.974;2022-12-18T00:55:46;21.95;;;12.43;;
71475;SDS011;59286;59.274;17.974;2022-12-18T00:58:12;20.27;;;12.68;;
71475;SDS011;59286;59.274;17.974;2022-12-18T01:00:39;19.33;;;11.80;;
71475;SDS011;59286;59.274;17.974;2022-12-18T01:03:05;17.70;;;11.43;;
71475;SDS011;59286;59.274;17.974;2022-12-18T01:05:31;22.08;;;12.95;;
71475;SDS011;59286;59.274;17.974;2022-12-18T01:07:57;18.80;;;11.20;;
71475;SDS011;59286;59.274;17.974;2022-12-18T01:10:23;18.17;;;11.80;;
71475;SDS011;59286;59.274;17.974;2022-12-18T01:12:49;22.20;;;12.60;;
71475;SDS011;59286;59.274;17.974;2022-12-18T01:15:15;20.40;;;11.52;;
71475;SDS011;59286;59.274;17.974;2022-12-18T01:17:41;18.23;;;11.73;;
71475;SDS011;59286;59.274;17.974;2022-12-18T01:20:07;19.25;;;12.20;;
71475;SDS011;59286;59.274;17.974;2022-12-18T01:22:34;18.05;;;12.07;;
71475;SDS011;59286;59.274;17.974;2022-12-18T01:25:00;18.30;;;12.75;;
71475;SDS011;59286;59.274;17.974;2022-12-18T01:27:26;21.45;;;13.45;;
71475;SDS011;59286;59.274;17.974;2022-12-18T01:29:51;25.67;;;13.02;;
71475;SDS011;59286;59.274;17.974;2022-12-18T01:32:17;19.20;;;13.02;;
71475;SDS011;59286;59.274;17.974;2022-12-18T01:34:42;20.67;;;12.80;;
71475;SDS011;59286;59.274;17.974;2022-12-18T01:37:08;20.27;;;13.50;;
71475;SDS011;59286;59.274;17.974;2022-12-18T01:39:33;22.75;;;11.80;;
71475;SDS011;59286;59.274;17.974;2022-12-18T01:41:59;23.58;;;12.77;;
71475;SDS011;59286;59.274;17.974;2022-12-18T01:47:44;19.23;;;12.18;;
71475;SDS011;59286;59.274;17.974;2022-12-18T01:50:13;20.23;;;12.63;;
71475;SDS011;59286;59.274;17.974;2022-12-18T01:52:50;18.20;;;12.45;;
71475;SDS011;59286;59.274;17.974;2022-12-18T01:55:40;21.67;;;12.77;;
71475;SDS011;59286;59.274;17.974;2022-12-18T01:58:15;22.40;;;12.73;;
71475;SDS011;59286;59.274;17.974;2022-12-18T02:00:41;20.35;;;13.48;;
71475;SDS011;59286;59.274;17.974;2022-12-18T02:03:07;18.90;;;13.02;;
71475;SDS011;59286;59.274;17.974;2022-12-18T02:08:40;19.33;;;12.00;;
71475;SDS011;59286;59.274;17.974;2022-12-18T02:17:03;18.42;;;12.13;;
71475;SDS011;59286;59.274;17.974;2022-12-18T02:19:44;18.55;;;12.00;;
71475;SDS011;59286;59.274;17.974;2022-12-18T02:25:19;22.33;;;12.10;;
71475;SDS011;59286;59.274;17.974;2022-12-18T02:28:05;19.17;;;11.13;;
71475;SDS011;59286;59.274;17.974;2022-12-18T02:30:34;17.85;;;11.88;;
71475;SDS011;59286;59.274;17.974;2022-12-18T02:33:04;17.15;;;11.52;;
71475;SDS011;59286;59.274;17.974;2022-12-18T02:35:31;15.52;;;10.70;;
71475;SDS011;59286;59.274;17.974;2022-12-18T02:37:58;17.85;;;11.60;;
71475;SDS011;59286;59.274;17.974;2022-12-18T02:40:24;19.25;;;11.82;;
71475;SDS011;59286;59.274;17.974;2022-12-18T02:42:52;17.83;;;11.00;;
71475;SDS011;59286;59.274;17.974;2022-12-18T02:45:17;16.90;;;11.77;;
71475;SDS011;59286;59.274;17.974;2022-12-18T02:47:44;17.70;;;11.20;;
71475;SDS011;59286;59.274;17.974;2022-12-18T02:50:32;16.48;;;11.07;;
71475;SDS011;59286;59.274;17.974;2022-12-18T02:58:08;15.80;;;11.23;;
71475;SDS011;59286;59.274;17.974;2022-12-18T03:03:33;15.43;;;10.10;;
71475;SDS011;59286;59.274;17.974;2022-12-18T03:06:05;20.77;;;11.45;;
71475;SDS011;59286;59.274;17.974;2022-12-18T03:08:36;18.77;;;10.88;;
71475;SDS011;59286;59.274;17.974;2022-12-18T03:11:07;15.98;;;9.43;;
71475;SDS011;59286;59.274;17.974;2022-12-18T03:13:36;14.18;;;9.90;;
71475;SDS011;59286;59.274;17.974;2022-12-18T03:16:05;16.33;;;10.30;;
71475;SDS011;59286;59.274;17.974;2022-12-18T03:18:48;19.83;;;11.40;;
71475;SDS011;59286;59.274;17.974;2022-12-18T03:21:19;20.00;;;11.00;;
71475;SDS011;59286;59.274;17.974;2022-12-18T03:23:48;20.08;;;10.05;;
71475;SDS011;59286;59.274;17.974;2022-12-18T03:26:17;17.38;;;10.68;;
71475;SDS011;59286;59.274;17.974;2022-12-18T03:28:49;19.80;;;10.75;;
71475;SDS011;59286;59.274;17.974;2022-12-18T03:31:18;17.65;;;11.20;;
71475;SDS011;59286;59.274;17.974;2022-12-18T03:33:52;15.55;;;9.77;;
71475;SDS011;59286;59.274;17.974;2022-12-18T03:36:20;16.80;;;11.00;;
71475;SDS011;59286;59.274;17.974;2022-12-18T03:38:45;16.45;;;10.77;;
71475;SDS011;59286;59.274;17.974;2022-12-18T03:49:52;16.08;;;10.50;;
71475;SDS011;59286;59.274;17.974;2022-12-18T03:52:27;15.82;;;10.38;;
71475;SDS011;59286;59.274;17.974;2022-12-18T03:55:17;14.70;;;10.45;;
71475;SDS011;59286;59.274;17.974;2022-12-18T03:57:44;16.40;;;9.98;;
71475;SDS011;59286;59.274;17.974;2022-12-18T04:00:13;13.95;;;10.02;;
71475;SDS011;59286;59.274;17.974;2022-12-18T04:02:43;13.02;;;9.38;;
71475;SDS011;59286;59.274;17.974;2022-12-18T04:05:13;17.70;;;10.20;;
71475;SDS011;59286;59.274;17.974;2022-12-18T04:07:39;16.00;;;10.73;;
71475;SDS011;59286;59.274;17.974;2022-12-18T04:10:06;15.00;;;10.07;;
71475;SDS011;59286;59.274;17.974;2022-12-18T04:12:33;22.27;;;10.05;;
71475;SDS011;59286;59.274;17.974;2022-12-18T04:14:59;13.52;;;9.00;;
71475;SDS011;59286;59.274;17.974;2022-12-18T04:17:24;13.80;;;9.35;;
71475;SDS011;59286;59.274;17.974;2022-12-18T04:19:50;16.85;;;9.50;;
71475;SDS011;59286;59.274;17.974;2022-12-18T04:22:15;17.48;;;10.60;;
71475;SDS011;59286;59.274;17.974;2022-12-18T04:24:41;14.50;;;9.82;;
71475;SDS011;59286;59.274;17.974;2022-12-18T04:27:06;15.20;;;9.75;;
71475;SDS011;59286;59.274;17.974;2022-12-18T04:29:32;15.40;;;10.60;;
71475;SDS011;59286;59.274;17.974;2022-12-18T04:31:57;14.85;;;9.15;;
71475;SDS011;59286;59.274;17.974;2022-12-18T04:34:22;20.95;;;10.23;;
71475;SDS011;59286;59.274;17.974;2022-12-18T04:36:48;14.63;;;10.05;;
71475;SDS011;59286;59.274;17.974;2022-12-18T04:39:13;18.02;;;9.77;;
71475;SDS011;59286;59.274;17.974;2022-12-18T04:41:39;16.65;;;10.45;;
71475;SDS011;59286;59.274;17.974;2022-12-18T04:44:04;15.30;;;9.95;;
71475;SDS011;59286;59.274;17.974;2022-12-18T04:46:30;16.05;;;10.05;;
71475;SDS011;59286;59.274;17.974;2022-12-18T04:48:55;14.77;;;9.80;;
71475;SDS011;59286;59.274;17.974;2022-12-18T04:51:20;19.05;;;9.13;;
71475;SDS011;59286;59.274;17.974;2022-12-18T04:53:46;14.90;;;9.55;;
71475;SDS011;59286;59.274;17.974;2022-12-18T04:56:12;15.73;;;10.10;;
71475;SDS011;59286;59.274;17.974;2022-12-18T04:58:40;16.92;;;10.23;;
71475;SDS011;59286;59.274;17.974;2022-12-18T05:01:07;14.98;;;9.60;;
71475;SDS011;59286;59.274;17.974;2022-12-18T05:03:33;15.65;;;10.13;;
71475;SDS011;59286;59.274;17.974;2022-12-18T05:05:59;14.43;;;9.70;;
71475;SDS011;59286;59.274;17.974;2022-12-18T05:08:24;16.50;;;10.13;;
71475;SDS011;59286;59.274;17.974;2022-12-18T05:10:57;13.90;;;9.50;;
71475;SDS011;59286;59.274;17.974;2022-12-18T05:13:27;17.95;;;9.93;;
71475;SDS011;59286;59.274;17.974;2022-12-18T05:15:54;16.65;;;9.85;;
71475;SDS011;59286;59.274;17.974;2022-12-18T05:18:20;14.77;;;9.32;;
71475;SDS011;59286;59.274;17.974;2022-12-18T05:20:46;14.68;;;9.93;;
71475;SDS011;59286;59.274;17.974;2022-12-18T05:23:11;16.15;;;10.15;;
71475;SDS011;59286;59.274;17.974;2022-12-18T05:25:36;14.30;;;9.88;;
71475;SDS011;59286;59.274;17.974;2022-12-18T05:28:02;14.50;;;9.52;;
71475;SDS011;59286;59.274;17.974;2022-12-18T05:30:27;17.25;;;9.98;;
71475;SDS011;59286;59.274;17.974;2022-12-18T05:32:52;14.57;;;9.35;;
71475;SDS011;59286;59.274;17.974;2022-12-18T05:35:18;15.60;;;10.05;;
71475;SDS011;59286;59.274;17.974;2022-12-18T05:37:43;14.70;;;9.93;;
71475;SDS011;59286;59.274;17.974;2022-12-18T05:40:09;16.90;;;9.48;;
71475;SDS011;59286;59.274;17.974;2022-12-18T05:42:35;17.00;;;9.68;;
71475;SDS011;59286;59.274;17.974;2022-12-18T05:45:01;14.40;;;9.23;;
71475;SDS011;59286;59.274;17.974;2022-12-18T05:47:26;17.92;;;10.05;;
71475;SDS011;59286;59.274;17.974;2022-12-18T05:49:52;13.85;;;8.90;;
71475;SDS011;59286;59.274;17.974;2022-12-18T05:52:17;13.00;;;9.07;;
71475;SDS011;59286;59.274;17.974;2022-12-18T05:54:43;15.60;;;9.43;;
71475;SDS011;59286;59.274;17.974;2022-12-18T05:57:08;13.20;;;8.68;;
71475;SDS011;59286;59.274;17.974;2022-12-18T05:59:33;14.95;;;9.13;;
71475;SDS011;59286;59.274;17.974;2022-12-18T06:01:59;13.35;;;8.45;;
71475;SDS011;59286;59.274;17.974;2022-12-18T06:04:26;14.45;;;8.43;;
71475;SDS011;59286;59.274;17.974;2022-12-18T06:06:52;14.45;;;9.30;;
71475;SDS011;59286;59.274;17.974;2022-12-18T06:09:17;14.93;;;9.65;;
71475;SDS011;59286;59.274;17.974;2022-12-18T06:11:43;14.98;;;9.38;;
71475;SDS011;59286;59.274;17.974;2022-12-18T06:14:08;12.88;;;8.90;;
71475;SDS011;59286;59.274;17.974;2022-12-18T06:16:34;16.35;;;9.95;;
71475;SDS011;59286;59.274;17.974;2022-12-18T06:19:00;12.15;;;8.25;;
71475;SDS011;59286;59.274;17.974;2022-12-18T06:21:28;16.27;;;9.65;;
71475;SDS011;59286;59.274;17.974;2022-12-18T06:23:54;14.80;;;8.93;;
71475;SDS011;59286;59.274;17.974;2022-12-18T06:26:19;17.80;;;9.02;;
71475;SDS011;59286;59.274;17.974;2022-12-18T06:28:44;14.20;;;9.38;;
71475;SDS011;59286;59.274;17.974;2022-12-18T06:31:10;14.27;;;9.15;;
71475;SDS011;59286;59.274;17.974;2022-12-18T06:33:36;17.02;;;9.30;;
71475;SDS011;59286;59.274;17.974;2022-12-18T06:36:03;14.98;;;8.77;;
71475;SDS011;59286;59.274;17.974;2022-12-18T06:38:31;14.52;;;9.27;;
71475;SDS011;59286;59.274;17.974;2022-12-18T06:40:57;13.32;;;9.15;;
71475;SDS011;59286;59.274;17.974;2022-12-18T06:43:22;12.68;;;8.73;;
71475;SDS011;59286;59.274;17.974;2022-12-18T06:45:48;17.00;;;9.20;;
71475;SDS011;59286;59.274;17.974;2022-12-18T06:48:17;15.18;;;9.68;;
71475;SDS011;59286;59.274;17.974;2022-12-18T06:50:44;12.77;;;8.57;;
71475;SDS011;59286;59.274;17.974;2022-12-18T06:53:10;13.07;;;9.00;;
71475;SDS011;59286;59.274;17.974;2022-12-18T06:55:35;14.25;;;9.18;;
71475;SDS011;59286;59.274;17.974;2022-12-18T06:58:02;13.88;;;9.40;;
71475;SDS011;59286;59.274;17.974;2022-12-18T07:00:27;16.50;;;10.18;;
71475;SDS011;59286;59.274;17.974;2022-12-18T07:02:52;15.60;;;9.20;;
71475;SDS011;59286;59.274;17.974;2022-12-18T07:05:18;15.80;;;9.48;;
71475;SDS011;59286;59.274;17.974;2022-12-18T07:07:43;15.65;;;10.20;;
71475;SDS011;59286;59.274;17.974;2022-12-18T07:10:08;13.52;;;9.82;;
71475;SDS011;59286;59.274;17.974;2022-12-18T07:12:34;15.70;;;9.80;;
71475;SDS011;59286;59.274;17.974;2022-12-18T07:14:59;18.38;;;10.90;;
71475;SDS011;59286;59.274;17.974;2022-12-18T07:17:24;14.50;;;9.50;;
71475;SDS011;59286;59.274;17.974;2022-12-18T07:19:50;16.10;;;9.63;;
71475;SDS011;59286;59.274;17.974;2022-12-18T07:22:15;16.67;;;10.35;;
71475;SDS011;59286;59.274;17.974;2022-12-18T07:24:40;16.55;;;10.55;;
71475;SDS011;59286;59.274;17.974;2022-12-18T07:27:06;17.73;;;10.57;;
71475;SDS011;59286;59.274;17.974;2022-12-18T07:29:31;15.13;;;9.88;;
71475;SDS011;59286;59.274;17.974;2022-12-18T07:31:56;15.43;;;10.40;;
71475;SDS011;59286;59.274;17.974;2022-12-18T07:34:22;16.55;;;10.77;;
71475;SDS011;59286;59.274;17.974;2022-12-18T07:36:47;14.75;;;9.65;;
71475;SDS011;59286;59.274;17.974;2022-12-18T07:39:12;14.88;;;10.15;;
71475;SDS011;59286;59.274;17.974;2022-12-18T07:41:38;18.05;;;9.80;;
71475;SDS011;59286;59.274;17.974;2022-12-18T07:44:09;15.63;;;10.43;;
71475;SDS011;59286;59.274;17.974;2022-12-18T07:46:35;16.20;;;10.20;;
71475;SDS011;59286;59.274;17.974;2022-12-18T07:49:00;15.93;;;10.98;;
71475;SDS011;59286;59.274;17.974;2022-12-18T07:51:26;18.67;;;10.50;;
71475;SDS011;59286;59.274;17.974;2022-12-18T07:53:51;15.32;;;10.30;;
71475;SDS011;59286;59.274;17.974;2022-12-18T07:56:17;17.38;;;10.45;;
71475;SDS011;59286;59.274;17.974;2022-12-18T07:58:42;17.45;;;10.48;;
71475;SDS011;59286;59.274;17.974;2022-12-18T08:01:12;14.45;;;10.25;;
71475;SDS011;59286;59.274;17.974;2022-12-18T08:03:39;18.17;;;10.90;;
71475;SDS011;59286;59.274;17.974;2022-12-18T08:06:06;18.80;;;11.48;;
71475;SDS011;59286;59.274;17.974;2022-12-18T08:08:34;19.13;;;10.85;;
71475;SDS011;59286;59.274;17.974;2022-12-18T08:10:59;18.20;;;11.45;;
71475;SDS011;59286;59.274;17.974;2022-12-18T08:13:25;20.88;;;12.77;;
71475;SDS011;59286;59.274;17.974;2022-12-18T08:16:01;18.67;;;11.38;;
71475;SDS011;59286;59.274;17.974;2022-12-18T08:18:28;20.63;;;12.35;;
71475;SDS011;59286;59.274;17.974;2022-12-18T08:20:54;20.52;;;11.90;;
71475;SDS011;59286;59.274;17.974;2022-12-18T08:23:20;18.67;;;11.82;;
71475;SDS011;59286;59.274;17.974;2022-12-18T08:25:46;21.52;;;11.68;;
71475;SDS011;59286;59.274;17.974;2022-12-18T08:28:12;20.20;;;11.25;;
71475;SDS011;59286;59.274;17.974;2022-12-18T08:30:37;15.70;;;11.02;;
71475;SDS011;59286;59.274;17.974;2022-12-18T08:33:03;18.33;;;11.18;;
71475;SDS011;59286;59.274;17.974;2022-12-18T08:35:28;19.35;;;11.70;;
71475;SDS011;59286;59.274;17.974;2022-12-18T08:37:53;20.05;;;11.20;;
71475;SDS011;59286;59.274;17.974;2022-12-18T08:40:19;16.88;;;10.75;;
71475;SDS011;59286;59.274;17.974;2022-12-18T08:42:44;14.85;;;11.05;;
71475;SDS011;59286;59.274;17.974;2022-12-18T08:45:28;16.23;;;10.88;;
71475;SDS011;59286;59.274;17.974;2022-12-18T08:47:54;16.70;;;10.95;;
71475;SDS011;59286;59.274;17.974;2022-12-18T08:50:20;16.90;;;11.27;;
71475;SDS011;59286;59.274;17.974;2022-12-18T08:52:45;15.82;;;10.63;;
71475;SDS011;59286;59.274;17.974;2022-12-18T08:55:10;18.85;;;11.43;;
71475;SDS011;59286;59.274;17.974;2022-12-18T08:57:36;17.38;;;11.23;;
71475;SDS011;59286;59.274;17.974;2022-12-18T09:00:02;15.98;;;10.40;;
71475;SDS011;59286;59.274;17.974;2022-12-18T09:02:28;17.45;;;11.05;;
71475;SDS011;59286;59.274;17.974;2022-12-18T09:04:54;19.27;;;10.95;;
71475;SDS011;59286;59.274;17.974;2022-12-18T09:07:19;18.63;;;11.27;;
71475;SDS011;59286;59.274;17.974;2022-12-18T09:09:44;16.80;;;10.88;;
71475;SDS011;59286;59.274;17.974;2022-12-18T09:12:10;16.92;;;10.98;;
71475;SDS011;59286;59.274;17.974;2022-12-18T09:14:35;18.45;;;10.73;;
71475;SDS011;59286;59.274;17.974;2022-12-18T09:17:00;14.93;;;10.68;;
71475;SDS011;59286;59.274;17.974;2022-12-18T09:19:26;19.40;;;11.35;;
71475;SDS011;59286;59.274;17.974;2022-12-18T09:21:51;16.40;;;10.57;;
71475;SDS011;59286;59.274;17.974;2022-12-18T09:24:17;15.90;;;9.88;;
71475;SDS011;59286;59.274;17.974;2022-12-18T09:26:42;15.38;;;9.85;;
71475;SDS011;59286;59.274;17.974;2022-12-18T09:29:08;17.02;;;9.63;;
71475;SDS011;59286;59.274;17.974;2022-12-18T09:31:34;13.63;;;9.25;;
71475;SDS011;59286;59.274;17.974;2022-12-18T09:33:59;15.30;;;9.18;;
71475;SDS011;59286;59.274;17.974;2022-12-18T09:36:25;14.77;;;9.52;;
71475;SDS011;59286;59.274;17.974;2022-12-18T09:38:50;15.93;;;9.52;;
71475;SDS011;59286;59.274;17.974;2022-12-18T09:43:51;14.77;;;9.63;;
71475;SDS011;59286;59.274;17.974;2022-12-18T09:46:24;12.55;;;9.02;;
71475;SDS011;59286;59.274;17.974;2022-12-18T09:49:01;14.57;;;9.82;;
71475;SDS011;59286;59.274;17.974;2022-12-18T09:51:33;15.07;;;9.98;;
71475;SDS011;59286;59.274;17.974;2022-12-18T09:54:06;14.25;;;9.15;;
71475;SDS011;59286;59.274;17.974;2022-12-18T09:56:38;17.77;;;10.25;;
71475;SDS011;59286;59.274;17.974;2022-12-18T09:59:12;15.40;;;9.55;;
71475;SDS011;59286;59.274;17.974;2022-12-18T10:01:45;13.93;;;9.15;;
71475;SDS011;59286;59.274;17.974;2022-12-18T10:04:12;13.73;;;9.02;;
71475;SDS011;59286;59.274;17.974;2022-12-18T10:09:15;13.75;;;8.70;;
71475;SDS011;59286;59.274;17.974;2022-12-18T10:12:01;14.93;;;9.68;;
71475;SDS011;59286;59.274;17.974;2022-12-18T10:22:47;14.70;;;9.32;;
71475;SDS011;59286;59.274;17.974;2022-12-18T10:27:47;12.30;;;8.57;;
71475;SDS011;59286;59.274;17.974;2022-12-18T10:30:15;17.60;;;8.55;;
71475;SDS011;59286;59.274;17.974;2022-12-18T10:32:42;17.95;;;9.98;;
71475;SDS011;59286;59.274;17.974;2022-12-18T10:35:20;15.32;;;9.25;;
71475;SDS011;59286;59.274;17.974;2022-12-18T10:38:33;13.10;;;9.07;;
71475;SDS011;59286;59.274;17.974;2022-12-18T10:40:52;14.13;;;9.43;;
71475;SDS011;59286;59.274;17.974;2022-12-18T10:43:30;12.45;;;8.57;;
71475;SDS011;59286;59.274;17.974;2022-12-18T10:46:03;13.45;;;9.48;;
71475;SDS011;59286;59.274;17.974;2022-12-18T10:48:30;15.13;;;9.18;;
71475;SDS011;59286;59.274;17.974;2022-12-18T10:51:19;16.88;;;9.65;;
71475;SDS011;59286;59.274;17.974;2022-12-18T10:53:51;15.00;;;9.27;;
71475;SDS011;59286;59.274;17.974;2022-12-18T10:56:19;14.10;;;9.10;;
71475;SDS011;59286;59.274;17.974;2022-12-18T10:58:46;16.00;;;8.88;;
71475;SDS011;59286;59.274;17.974;2022-12-18T11:01:24;15.52;;;9.15;;
71475;SDS011;59286;59.274;17.974;2022-12-18T11:06:19;15.25;;;10.00;;
71475;SDS011;59286;59.274;17.974;2022-12-18T11:09:04;13.85;;;8.38;;
71475;SDS011;59286;59.274;17.974;2022-12-18T11:11:42;13.50;;;8.65;;
71475;SDS011;59286;59.274;17.974;2022-12-18T11:14:34;16.40;;;9.05;;
71475;SDS011;59286;59.274;17.974;2022-12-18T11:17:33;12.13;;;8.68;;
71475;SDS011;59286;59.274;17.974;2022-12-18T11:20:01;12.05;;;8.27;;
71475;SDS011;59286;59.274;17.974;2022-12-18T11:22:28;13.65;;;9.15;;
71475;SDS011;59286;59.274;17.974;2022-12-18T11:25:37;12.10;;;7.55;;
71475;SDS011;59286;59.274;17.974;2022-12-18T11:28:03;15.80;;;8.50;;
71475;SDS011;59286;59.274;17.974;2022-12-18T11:30:49;16.55;;;8.77;;
71475;SDS011;59286;59.274;17.974;2022-12-18T11:33:33;14.77;;;8.73;;
71475;SDS011;59286;59.274;17.974;2022-12-18T11:35:59;12.27;;;7.97;;
71475;SDS011;59286;59.274;17.974;2022-12-18T11:38:29;15.85;;;8.43;;
71475;SDS011;59286;59.274;17.974;2022-12-18T11:43:52;12.70;;;7.95;;
71475;SDS011;59286;59.274;17.974;2022-12-18T11:46:24;13.68;;;8.80;;
71475;SDS011;59286;59.274;17.974;2022-12-18T11:49:15;12.80;;;7.82;;
71475;SDS011;59286;59.274;17.974;2022-12-18T11:54:21;13.38;;;8.63;;
71475;SDS011;59286;59.274;17.974;2022-12-18T11:56:50;12.65;;;8.27;;
71475;SDS011;59286;59.274;17.974;2022-12-18T12:02:02;13.13;;;8.00;;
71475;SDS011;59286;59.274;17.974;2022-12-18T12:13:03;12.95;;;7.95;;
71475;SDS011;59286;59.274;17.974;2022-12-18T12:16:01;15.48;;;8.98;;
71475;SDS011;59286;59.274;17.974;2022-12-18T12:21:55;13.95;;;8.35;;
71475;SDS011;59286;59.274;17.974;2022-12-18T12:24:39;13.80;;;8.20;;
71475;SDS011;59286;59.274;17.974;2022-12-18T12:38:05;15.50;;;8.38;;
71475;SDS011;59286;59.274;17.974;2022-12-18T12:40:37;12.38;;;8.00;;
71475;SDS011;59286;59.274;17.974;2022-12-18T12:45:45;13.65;;;7.93;;
71475;SDS011;59286;59.274;17.974;2022-12-18T12:48:20;15.55;;;8.30;;
71475;SDS011;59286;59.274;17.974;2022-12-18T12:50:48;13.90;;;9.20;;
71475;SDS011;59286;59.274;17.974;2022-12-18T12:53:22;14.77;;;8.80;;
71475;SDS011;59286;59.274;17.974;2022-12-18T12:55:53;14.20;;;8.32;;
71475;SDS011;59286;59.274;17.974;2022-12-18T13:09:06;14.80;;;9.23;;
71475;SDS011;59286;59.274;17.974;2022-12-18T13:14:20;23.15;;;11.05;;
71475;SDS011;59286;59.274;17.974;2022-12-18T13:16:51;14.15;;;7.75;;
71475;SDS011;59286;59.274;17.974;2022-12-18T13:19:22;14.27;;;8.73;;
71475;SDS011;59286;59.274;17.974;2022-12-18T13:21:56;16.13;;;8.52;;
71475;SDS011;59286;59.274;17.974;2022-12-18T13:24:25;17.98;;;9.43;;
71475;SDS011;59286;59.274;17.974;2022-12-18T13:26:55;13.43;;;6.68;;
71475;SDS011;59286;59.274;17.974;2022-12-18T13:32:20;15.27;;;7.00;;
71475;SDS011;59286;59.274;17.974;2022-12-18T13:34:47;12.98;;;6.68;;
71475;SDS011;59286;59.274;17.974;2022-12-18T13:39:56;12.07;;;6.25;;
71475;SDS011;59286;59.274;17.974;2022-12-18T13:42:40;13.60;;;6.97;;
71475;SDS011;59286;59.274;17.974;2022-12-18T13:45:38;14.00;;;7.05;;
71475;SDS011;59286;59.274;17.974;2022-12-18T13:48:05;16.85;;;6.50;;
71475;SDS011;59286;59.274;17.974;2022-12-18T13:50:40;16.77;;;8.60;;
71475;SDS011;59286;59.274;17.974;2022-12-18T13:53:05;13.25;;;8.02;;
71475;SDS011;59286;59.274;17.974;2022-12-18T13:55:31;12.68;;;7.53;;
71475;SDS011;59286;59.274;17.974;2022-12-18T13:58:04;18.55;;;7.47;;
71475;SDS011;59286;59.274;17.974;2022-12-18T14:00:30;11.30;;;6.70;;
71475;SDS011;59286;59.274;17.974;2022-12-18T14:02:56;13.02;;;6.55;;
71475;SDS011;59286;59.274;17.974;2022-12-18T14:05:27;12.88;;;6.40;;
71475;SDS011;59286;59.274;17.974;2022-12-18T14:07:55;11.27;;;7.22;;
71475;SDS011;59286;59.274;17.974;2022-12-18T14:10:25;11.98;;;6.28;;
71475;SDS011;59286;59.274;17.974;2022-12-18T14:12:51;11.57;;;6.13;;
71475;SDS011;59286;59.274;17.974;2022-12-18T14:17:55;13.38;;;6.97;;
71475;SDS011;59286;59.274;17.974;2022-12-18T14:20:24;12.82;;;6.68;;
71475;SDS011;59286;59.274;17.974;2022-12-18T14:22:51;15.35;;;7.57;;
71475;SDS011;59286;59.274;17.974;2022-12-18T14:25:20;13.82;;;5.82;;
71475;SDS011;59286;59.274;17.974;2022-12-18T14:27:52;15.60;;;7.13;;
71475;SDS011;59286;59.274;17.974;2022-12-18T14:30:28;10.60;;;5.97;;
71475;SDS011;59286;59.274;17.974;2022-12-18T14:33:02;11.68;;;7.35;;
71475;SDS011;59286;59.274;17.974;2022-12-18T14:35:29;13.45;;;5.88;;
71475;SDS011;59286;59.274;17.974;2022-12-18T14:38:08;9.90;;;5.88;;
71475;SDS011;59286;59.274;17.974;2022-12-18T14:40:36;10.00;;;5.57;;
71475;SDS011;59286;59.274;17.974;2022-12-18T14:43:02;12.73;;;5.85;;
71475;SDS011;59286;59.274;17.974;2022-12-18T14:45:41;11.90;;;6.30;;
71475;SDS011;59286;59.274;17.974;2022-12-18T14:48:08;14.48;;;5.55;;
71475;SDS011;59286;59.274;17.974;2022-12-18T14:50:56;11.85;;;5.97;;
71475;SDS011;59286;59.274;17.974;2022-12-18T14:53:36;9.13;;;5.18;;
71475;SDS011;59286;59.274;17.974;2022-12-18T14:56:15;14.45;;;6.40;;
71475;SDS011;59286;59.274;17.974;2022-12-18T14:58:45;11.02;;;5.57;;
71475;SDS011;59286;59.274;17.974;2022-12-18T15:01:19;13.95;;;5.80;;
71475;SDS011;59286;59.274;17.974;2022-12-18T15:03:49;12.88;;;5.20;;
71475;SDS011;59286;59.274;17.974;2022-12-18T15:06:21;10.02;;;4.60;;
71475;SDS011;59286;59.274;17.974;2022-12-18T15:09:00;13.00;;;5.00;;
71475;SDS011;59286;59.274;17.974;2022-12-18T15:13:58;9.75;;;4.93;;
71475;SDS011;59286;59.274;17.974;2022-12-18T15:16:24;9.93;;;4.05;;
71475;SDS011;59286;59.274;17.974;2022-12-18T15:18:50;12.27;;;5.38;;
71475;SDS011;59286;59.274;17.974;2022-12-18T15:21:19;8.68;;;4.47;;
71475;SDS011;59286;59.274;17.974;2022-12-18T15:23:49;9.55;;;4.03;;
71475;SDS011;59286;59.274;17.974;2022-12-18T15:26:17;7.63;;;4.00;;
71475;SDS011;59286;59.274;17.974;2022-12-18T15:33:37;8.30;;;4.30;;
71475;SDS011;59286;59.274;17.974;2022-12-18T15:36:05;10.98;;;3.72;;
71475;SDS011;59286;59.274;17.974;2022-12-18T15:38:34;13.25;;;4.70;;
71475;SDS011;59286;59.274;17.974;2022-12-18T15:40:59;11.10;;;4.72;;
71475;SDS011;59286;59.274;17.974;2022-12-18T15:43:25;9.85;;;4.20;;
71475;SDS011;59286;59.274;17.974;2022-12-18T15:45:58;8.73;;;3.70;;
71475;SDS011;59286;59.274;17.974;2022-12-18T15:48:24;9.95;;;4.15;;
71475;SDS011;59286;59.274;17.974;2022-12-18T15:50:50;14.43;;;4.00;;
71475;SDS011;59286;59.274;17.974;2022-12-18T15:53:18;7.28;;;2.95;;
71475;SDS011;59286;59.274;17.974;2022-12-18T15:55:44;9.10;;;3.47;;
71475;SDS011;59286;59.274;17.974;2022-12-18T15:58:28;14.25;;;4.15;;
71475;SDS011;59286;59.274;17.974;2022-12-18T16:00:53;8.95;;;3.38;;
71475;SDS011;59286;59.274;17.974;2022-12-18T16:03:23;8.70;;;3.30;;
71475;SDS011;59286;59.274;17.974;2022-12-18T16:05:48;10.80;;;3.40;;
71475;SDS011;59286;59.274;17.974;2022-12-18T16:08:14;5.95;;;3.03;;
71475;SDS011;59286;59.274;17.974;2022-12-18T16:10:39;12.98;;;6.20;;
71475;SDS011;59286;59.274;17.974;2022-12-18T16:13:04;10.52;;;3.20;;
71475;SDS011;59286;59.274;17.974;2022-12-18T16:15:31;9.48;;;2.92;;
71475;SDS011;59286;59.274;17.974;2022-12-18T16:17:59;8.10;;;2.90;;
71475;SDS011;59286;59.274;17.974;2022-12-18T16:20:29;11.07;;;2.88;;